sensor_id;sensor_type;location;lat;lon;timestamp;P1;durP1;ratioP1;P2;durP2;ratioP2
77046;SDS011;65977;56.380;44.022;2023-04-03T00:01:03;20.98;;;11.73;;
77046;SDS011;65977;56.380;44.022;2023-04-03T00:03:30;20.33;;;11.85;;
77046;SDS011;65977;56.380;44.022;2023-04-03T00:05:58;19.45;;;12.30;;
77046;SDS011;65977;56.380;44.022;2023-04-03T00:08:25;18.33;;;12.85;;
77046;SDS011;65977;56.380;44.022;2023-04-03T00:10:52;17.90;;;11.32;;
77046;SDS011;65977;56.380;44.022;2023-04-03T00:13:19;18.02;;;11.27;;
77046;SDS011;65977;56.380;44.022;2023-04-03T00:15:46;19.05;;;11.05;;
77046;SDS011;65977;56.380;44.022;2023-04-03T00:18:13;22.25;;;12.60;;
77046;SDS011;65977;56.380;44.022;2023-04-03T00:20:40;28.40;;;15.50;;
77046;SDS011;65977;56.380;44.022;2023-04-03T00:23:07;20.55;;;12.38;;
77046;SDS011;65977;56.380;44.022;2023-04-03T00:25:35;18.80;;;11.63;;
77046;SDS011;65977;56.380;44.022;2023-04-03T00:28:02;18.40;;;11.52;;
77046;SDS011;65977;56.380;44.022;2023-04-03T00:30:30;18.25;;;11.48;;
77046;SDS011;65977;56.380;44.022;2023-04-03T00:32:58;20.52;;;11.70;;
77046;SDS011;65977;56.380;44.022;2023-04-03T00:35:26;21.00;;;13.50;;
77046;SDS011;65977;56.380;44.022;2023-04-03T00:37:54;19.13;;;10.93;;
77046;SDS011;65977;56.380;44.022;2023-04-03T00:40:23;14.90;;;10.45;;
77046;SDS011;65977;56.380;44.022;2023-04-03T00:42:52;17.73;;;11.20;;
77046;SDS011;65977;56.380;44.022;2023-04-03T00:45:39;18.83;;;11.52;;
77046;SDS011;65977;56.380;44.022;2023-04-03T00:48:08;18.77;;;12.13;;
77046;SDS011;65977;56.380;44.022;2023-04-03T00:50:39;19.38;;;11.65;;
77046;SDS011;65977;56.380;44.022;2023-04-03T00:53:10;17.73;;;11.10;;
77046;SDS011;65977;56.380;44.022;2023-04-03T00:55:41;17.33;;;11.68;;
77046;SDS011;65977;56.380;44.022;2023-04-03T00:58:09;17.38;;;10.07;;
77046;SDS011;65977;56.380;44.022;2023-04-03T01:00:38;15.52;;;10.57;;
77046;SDS011;65977;56.380;44.022;2023-04-03T01:05:36;16.38;;;10.38;;
77046;SDS011;65977;56.380;44.022;2023-04-03T01:08:04;17.92;;;11.27;;
77046;SDS011;65977;56.380;44.022;2023-04-03T01:10:31;16.55;;;11.98;;
77046;SDS011;65977;56.380;44.022;2023-04-03T01:12:58;21.52;;;12.00;;
77046;SDS011;65977;56.380;44.022;2023-04-03T01:15:26;16.65;;;10.98;;
77046;SDS011;65977;56.380;44.022;2023-04-03T01:18:01;18.60;;;10.98;;
77046;SDS011;65977;56.380;44.022;2023-04-03T01:25:40;16.73;;;10.93;;
77046;SDS011;65977;56.380;44.022;2023-04-03T01:28:14;15.35;;;10.50;;
77046;SDS011;65977;56.380;44.022;2023-04-03T01:33:42;17.98;;;9.73;;
77046;SDS011;65977;56.380;44.022;2023-04-03T01:36:11;18.35;;;11.07;;
77046;SDS011;65977;56.380;44.022;2023-04-03T01:38:44;19.33;;;10.60;;
77046;SDS011;65977;56.380;44.022;2023-04-03T01:41:11;15.93;;;10.20;;
77046;SDS011;65977;56.380;44.022;2023-04-03T01:43:38;20.83;;;11.90;;
77046;SDS011;65977;56.380;44.022;2023-04-03T01:46:05;21.50;;;13.20;;
77046;SDS011;65977;56.380;44.022;2023-04-03T01:48:32;28.48;;;14.82;;
77046;SDS011;65977;56.380;44.022;2023-04-03T01:50:59;26.80;;;14.82;;
77046;SDS011;65977;56.380;44.022;2023-04-03T01:53:26;28.42;;;15.13;;
77046;SDS011;65977;56.380;44.022;2023-04-03T01:55:53;21.40;;;13.00;;
77046;SDS011;65977;56.380;44.022;2023-04-03T01:58:20;20.45;;;12.95;;
77046;SDS011;65977;56.380;44.022;2023-04-03T02:00:47;25.30;;;14.38;;
77046;SDS011;65977;56.380;44.022;2023-04-03T02:03:15;20.73;;;13.00;;
77046;SDS011;65977;56.380;44.022;2023-04-03T02:05:42;21.75;;;12.77;;
77046;SDS011;65977;56.380;44.022;2023-04-03T02:08:09;18.42;;;10.77;;
77046;SDS011;65977;56.380;44.022;2023-04-03T02:10:36;16.65;;;10.75;;
77046;SDS011;65977;56.380;44.022;2023-04-03T02:13:04;16.02;;;11.02;;
77046;SDS011;65977;56.380;44.022;2023-04-03T02:15:31;22.15;;;12.50;;
77046;SDS011;65977;56.380;44.022;2023-04-03T02:17:58;18.42;;;10.85;;
77046;SDS011;65977;56.380;44.022;2023-04-03T02:20:25;16.80;;;10.93;;
77046;SDS011;65977;56.380;44.022;2023-04-03T02:22:52;16.98;;;12.05;;
77046;SDS011;65977;56.380;44.022;2023-04-03T02:25:19;17.65;;;11.18;;
77046;SDS011;65977;56.380;44.022;2023-04-03T02:27:46;19.30;;;10.88;;
77046;SDS011;65977;56.380;44.022;2023-04-03T02:30:14;14.98;;;10.02;;
77046;SDS011;65977;56.380;44.022;2023-04-03T02:32:41;17.55;;;11.70;;
77046;SDS011;65977;56.380;44.022;2023-04-03T02:35:10;17.65;;;11.43;;
77046;SDS011;65977;56.380;44.022;2023-04-03T02:37:38;18.05;;;10.70;;
77046;SDS011;65977;56.380;44.022;2023-04-03T02:40:05;17.25;;;10.95;;
77046;SDS011;65977;56.380;44.022;2023-04-03T02:42:33;15.13;;;9.48;;
77046;SDS011;65977;56.380;44.022;2023-04-03T02:45:00;14.90;;;9.68;;
77046;SDS011;65977;56.380;44.022;2023-04-03T02:47:28;16.58;;;10.23;;
77046;SDS011;65977;56.380;44.022;2023-04-03T02:49:56;15.77;;;10.55;;
77046;SDS011;65977;56.380;44.022;2023-04-03T02:52:23;15.77;;;10.18;;
77046;SDS011;65977;56.380;44.022;2023-04-03T02:54:50;18.95;;;10.98;;
77046;SDS011;65977;56.380;44.022;2023-04-03T02:57:17;14.50;;;9.85;;
77046;SDS011;65977;56.380;44.022;2023-04-03T02:59:44;16.00;;;10.13;;
77046;SDS011;65977;56.380;44.022;2023-04-03T03:02:11;16.80;;;10.95;;
77046;SDS011;65977;56.380;44.022;2023-04-03T03:04:38;12.45;;;9.20;;
77046;SDS011;65977;56.380;44.022;2023-04-03T03:07:05;17.77;;;11.95;;
77046;SDS011;65977;56.380;44.022;2023-04-03T03:09:32;15.70;;;9.25;;
77046;SDS011;65977;56.380;44.022;2023-04-03T03:11:59;17.00;;;11.23;;
77046;SDS011;65977;56.380;44.022;2023-04-03T03:14:26;18.52;;;10.30;;
77046;SDS011;65977;56.380;44.022;2023-04-03T03:16:53;15.75;;;10.10;;
77046;SDS011;65977;56.380;44.022;2023-04-03T03:19:20;15.30;;;10.30;;
77046;SDS011;65977;56.380;44.022;2023-04-03T03:21:47;15.55;;;10.50;;
77046;SDS011;65977;56.380;44.022;2023-04-03T03:24:14;16.70;;;9.93;;
77046;SDS011;65977;56.380;44.022;2023-04-03T03:26:42;14.57;;;9.43;;
77046;SDS011;65977;56.380;44.022;2023-04-03T03:29:09;17.65;;;10.80;;
77046;SDS011;65977;56.380;44.022;2023-04-03T03:31:36;14.20;;;9.57;;
77046;SDS011;65977;56.380;44.022;2023-04-03T03:34:04;13.43;;;10.02;;
77046;SDS011;65977;56.380;44.022;2023-04-03T03:36:31;17.05;;;9.45;;
77046;SDS011;65977;56.380;44.022;2023-04-03T03:38:58;18.15;;;11.93;;
77046;SDS011;65977;56.380;44.022;2023-04-03T03:41:25;15.73;;;9.32;;
77046;SDS011;65977;56.380;44.022;2023-04-03T03:43:53;15.35;;;9.45;;
77046;SDS011;65977;56.380;44.022;2023-04-03T03:46:20;15.60;;;8.73;;
77046;SDS011;65977;56.380;44.022;2023-04-03T03:48:47;15.82;;;9.30;;
77046;SDS011;65977;56.380;44.022;2023-04-03T03:51:14;12.43;;;8.65;;
77046;SDS011;65977;56.380;44.022;2023-04-03T03:53:42;11.20;;;8.15;;
77046;SDS011;65977;56.380;44.022;2023-04-03T03:56:09;11.98;;;8.52;;
77046;SDS011;65977;56.380;44.022;2023-04-03T03:58:37;10.50;;;6.20;;
77046;SDS011;65977;56.380;44.022;2023-04-03T04:01:04;13.68;;;7.95;;
77046;SDS011;65977;56.380;44.022;2023-04-03T04:03:32;14.45;;;7.47;;
77046;SDS011;65977;56.380;44.022;2023-04-03T04:06:00;9.95;;;6.93;;
77046;SDS011;65977;56.380;44.022;2023-04-03T04:08:28;11.75;;;7.40;;
77046;SDS011;65977;56.380;44.022;2023-04-03T04:10:55;10.80;;;8.75;;
77046;SDS011;65977;56.380;44.022;2023-04-03T04:13:22;8.73;;;6.28;;
77046;SDS011;65977;56.380;44.022;2023-04-03T04:15:49;8.85;;;6.28;;
77046;SDS011;65977;56.380;44.022;2023-04-03T04:18:16;10.18;;;5.80;;
77046;SDS011;65977;56.380;44.022;2023-04-03T04:20:45;7.90;;;5.85;;
77046;SDS011;65977;56.380;44.022;2023-04-03T04:23:12;7.43;;;5.28;;
77046;SDS011;65977;56.380;44.022;2023-04-03T04:25:40;8.20;;;5.68;;
77046;SDS011;65977;56.380;44.022;2023-04-03T04:28:07;8.13;;;6.10;;
77046;SDS011;65977;56.380;44.022;2023-04-03T04:30:34;8.02;;;5.10;;
77046;SDS011;65977;56.380;44.022;2023-04-03T04:33:01;6.38;;;5.05;;
77046;SDS011;65977;56.380;44.022;2023-04-03T04:35:28;6.72;;;5.07;;
77046;SDS011;65977;56.380;44.022;2023-04-03T04:37:55;6.03;;;4.75;;
77046;SDS011;65977;56.380;44.022;2023-04-03T04:40:22;9.00;;;5.70;;
77046;SDS011;65977;56.380;44.022;2023-04-03T04:42:49;6.68;;;5.15;;
77046;SDS011;65977;56.380;44.022;2023-04-03T04:45:16;6.40;;;4.93;;
77046;SDS011;65977;56.380;44.022;2023-04-03T04:47:44;7.85;;;6.82;;
77046;SDS011;65977;56.380;44.022;2023-04-03T04:50:11;7.82;;;5.30;;
77046;SDS011;65977;56.380;44.022;2023-04-03T04:52:39;6.60;;;4.88;;
77046;SDS011;65977;56.380;44.022;2023-04-03T04:55:06;7.70;;;5.13;;
77046;SDS011;65977;56.380;44.022;2023-04-03T04:57:33;7.00;;;5.70;;
77046;SDS011;65977;56.380;44.022;2023-04-03T05:00:02;6.30;;;4.75;;
77046;SDS011;65977;56.380;44.022;2023-04-03T05:02:29;7.57;;;5.32;;
77046;SDS011;65977;56.380;44.022;2023-04-03T05:04:57;5.78;;;4.55;;
77046;SDS011;65977;56.380;44.022;2023-04-03T05:07:24;8.15;;;4.93;;
77046;SDS011;65977;56.380;44.022;2023-04-03T05:09:51;7.63;;;5.93;;
77046;SDS011;65977;56.380;44.022;2023-04-03T05:12:18;7.07;;;5.47;;
77046;SDS011;65977;56.380;44.022;2023-04-03T05:14:45;7.15;;;5.57;;
77046;SDS011;65977;56.380;44.022;2023-04-03T05:17:12;7.03;;;5.45;;
77046;SDS011;65977;56.380;44.022;2023-04-03T05:19:39;7.90;;;5.78;;
77046;SDS011;65977;56.380;44.022;2023-04-03T05:22:06;9.77;;;5.97;;
77046;SDS011;65977;56.380;44.022;2023-04-03T05:24:33;6.80;;;5.68;;
77046;SDS011;65977;56.380;44.022;2023-04-03T05:27:00;6.85;;;5.40;;
77046;SDS011;65977;56.380;44.022;2023-04-03T05:29:27;8.35;;;5.68;;
77046;SDS011;65977;56.380;44.022;2023-04-03T05:31:54;7.53;;;5.53;;
77046;SDS011;65977;56.380;44.022;2023-04-03T05:34:21;6.05;;;4.95;;
77046;SDS011;65977;56.380;44.022;2023-04-03T05:36:48;6.55;;;5.13;;
77046;SDS011;65977;56.380;44.022;2023-04-03T05:39:16;6.10;;;5.10;;
77046;SDS011;65977;56.380;44.022;2023-04-03T05:41:43;5.85;;;5.05;;
77046;SDS011;65977;56.380;44.022;2023-04-03T05:44:10;6.05;;;5.18;;
77046;SDS011;65977;56.380;44.022;2023-04-03T05:46:37;10.95;;;7.78;;
77046;SDS011;65977;56.380;44.022;2023-04-03T05:49:04;8.35;;;4.93;;
77046;SDS011;65977;56.380;44.022;2023-04-03T05:51:33;9.63;;;6.10;;
77046;SDS011;65977;56.380;44.022;2023-04-03T05:54:08;7.57;;;5.05;;
77046;SDS011;65977;56.380;44.022;2023-04-03T05:56:39;8.43;;;5.47;;
77046;SDS011;65977;56.380;44.022;2023-04-03T05:59:06;9.30;;;4.78;;
77046;SDS011;65977;56.380;44.022;2023-04-03T06:01:33;6.95;;;5.18;;
77046;SDS011;65977;56.380;44.022;2023-04-03T06:04:01;7.18;;;4.63;;
77046;SDS011;65977;56.380;44.022;2023-04-03T06:09:15;9.02;;;5.38;;
77046;SDS011;65977;56.380;44.022;2023-04-03T06:11:43;7.07;;;5.32;;
77046;SDS011;65977;56.380;44.022;2023-04-03T06:14:11;9.07;;;5.18;;
77046;SDS011;65977;56.380;44.022;2023-04-03T06:16:38;7.32;;;5.13;;
77046;SDS011;65977;56.380;44.022;2023-04-03T06:19:07;9.25;;;5.25;;
77046;SDS011;65977;56.380;44.022;2023-04-03T06:21:35;10.45;;;5.20;;
77046;SDS011;65977;56.380;44.022;2023-04-03T06:24:03;10.80;;;6.15;;
77046;SDS011;65977;56.380;44.022;2023-04-03T06:26:30;9.65;;;5.60;;
77046;SDS011;65977;56.380;44.022;2023-04-03T06:28:57;6.70;;;5.43;;
77046;SDS011;65977;56.380;44.022;2023-04-03T06:31:24;6.38;;;4.97;;
77046;SDS011;65977;56.380;44.022;2023-04-03T06:33:52;10.20;;;5.70;;
77046;SDS011;65977;56.380;44.022;2023-04-03T06:36:19;8.88;;;5.75;;
77046;SDS011;65977;56.380;44.022;2023-04-03T06:38:47;7.20;;;5.05;;
77046;SDS011;65977;56.380;44.022;2023-04-03T06:41:15;6.55;;;5.03;;
77046;SDS011;65977;56.380;44.022;2023-04-03T06:43:43;8.32;;;5.32;;
77046;SDS011;65977;56.380;44.022;2023-04-03T06:46:15;6.45;;;5.22;;
77046;SDS011;65977;56.380;44.022;2023-04-03T06:48:43;7.78;;;4.88;;
77046;SDS011;65977;56.380;44.022;2023-04-03T06:51:18;11.98;;;5.80;;
77046;SDS011;65977;56.380;44.022;2023-04-03T06:53:47;8.43;;;5.00;;
77046;SDS011;65977;56.380;44.022;2023-04-03T06:56:15;12.00;;;5.53;;
77046;SDS011;65977;56.380;44.022;2023-04-03T06:58:43;10.60;;;4.97;;
77046;SDS011;65977;56.380;44.022;2023-04-03T07:01:11;9.13;;;5.97;;
77046;SDS011;65977;56.380;44.022;2023-04-03T07:03:40;8.57;;;5.60;;
77046;SDS011;65977;56.380;44.022;2023-04-03T07:06:10;6.80;;;5.43;;
77046;SDS011;65977;56.380;44.022;2023-04-03T07:08:38;10.35;;;6.53;;
77046;SDS011;65977;56.380;44.022;2023-04-03T07:11:06;10.23;;;5.97;;
77046;SDS011;65977;56.380;44.022;2023-04-03T07:13:33;10.38;;;6.45;;
77046;SDS011;65977;56.380;44.022;2023-04-03T07:16:01;25.88;;;6.60;;
77046;SDS011;65977;56.380;44.022;2023-04-03T07:18:30;8.60;;;5.60;;
77046;SDS011;65977;56.380;44.022;2023-04-03T07:21:01;11.95;;;6.53;;
77046;SDS011;65977;56.380;44.022;2023-04-03T07:23:29;11.63;;;5.40;;
77046;SDS011;65977;56.380;44.022;2023-04-03T07:25:56;14.88;;;5.95;;
77046;SDS011;65977;56.380;44.022;2023-04-03T07:28:23;14.10;;;6.65;;
77046;SDS011;65977;56.380;44.022;2023-04-03T07:30:53;10.23;;;6.65;;
77046;SDS011;65977;56.380;44.022;2023-04-03T07:33:26;9.32;;;6.38;;
77046;SDS011;65977;56.380;44.022;2023-04-03T07:35:53;19.92;;;8.80;;
77046;SDS011;65977;56.380;44.022;2023-04-03T07:38:21;14.48;;;5.72;;
77046;SDS011;65977;56.380;44.022;2023-04-03T07:40:49;26.90;;;6.30;;
77046;SDS011;65977;56.380;44.022;2023-04-03T07:43:17;24.35;;;8.13;;
77046;SDS011;65977;56.380;44.022;2023-04-03T07:45:45;20.38;;;7.53;;
77046;SDS011;65977;56.380;44.022;2023-04-03T07:48:22;20.67;;;6.78;;
77046;SDS011;65977;56.380;44.022;2023-04-03T07:50:51;15.15;;;6.75;;
77046;SDS011;65977;56.380;44.022;2023-04-03T07:53:18;18.90;;;7.13;;
77046;SDS011;65977;56.380;44.022;2023-04-03T07:55:46;14.27;;;6.35;;
77046;SDS011;65977;56.380;44.022;2023-04-03T07:58:15;18.25;;;7.05;;
77046;SDS011;65977;56.380;44.022;2023-04-03T08:00:44;20.15;;;9.05;;
77046;SDS011;65977;56.380;44.022;2023-04-03T08:03:11;17.13;;;7.32;;
77046;SDS011;65977;56.380;44.022;2023-04-03T08:05:40;13.85;;;7.22;;
77046;SDS011;65977;56.380;44.022;2023-04-03T08:08:09;21.75;;;7.60;;
77046;SDS011;65977;56.380;44.022;2023-04-03T08:10:38;12.52;;;5.75;;
77046;SDS011;65977;56.380;44.022;2023-04-03T08:13:05;16.23;;;6.35;;
77046;SDS011;65977;56.380;44.022;2023-04-03T08:15:33;21.13;;;7.13;;
77046;SDS011;65977;56.380;44.022;2023-04-03T08:18:01;16.05;;;6.55;;
77046;SDS011;65977;56.380;44.022;2023-04-03T08:20:29;15.27;;;7.00;;
77046;SDS011;65977;56.380;44.022;2023-04-03T08:22:56;18.08;;;6.07;;
77046;SDS011;65977;56.380;44.022;2023-04-03T08:25:23;18.63;;;6.63;;
77046;SDS011;65977;56.380;44.022;2023-04-03T08:27:50;11.30;;;5.43;;
77046;SDS011;65977;56.380;44.022;2023-04-03T08:30:17;18.05;;;6.50;;
77046;SDS011;65977;56.380;44.022;2023-04-03T08:32:44;20.23;;;5.97;;
77046;SDS011;65977;56.380;44.022;2023-04-03T08:35:12;17.98;;;4.85;;
77046;SDS011;65977;56.380;44.022;2023-04-03T08:37:39;9.13;;;3.08;;
77046;SDS011;65977;56.380;44.022;2023-04-03T08:40:07;9.77;;;2.97;;
77046;SDS011;65977;56.380;44.022;2023-04-03T08:50:39;9.13;;;3.17;;
77046;SDS011;65977;56.380;44.022;2023-04-03T08:53:14;6.78;;;3.80;;
77046;SDS011;65977;56.380;44.022;2023-04-03T08:55:45;8.85;;;3.45;;
77046;SDS011;65977;56.380;44.022;2023-04-03T08:58:15;21.23;;;4.32;;
77046;SDS011;65977;56.380;44.022;2023-04-03T09:03:19;9.15;;;4.22;;
77046;SDS011;65977;56.380;44.022;2023-04-03T09:08:30;12.55;;;3.67;;
77046;SDS011;65977;56.380;44.022;2023-04-03T09:13:44;7.75;;;3.90;;
77046;SDS011;65977;56.380;44.022;2023-04-03T09:21:48;6.45;;;3.15;;
77046;SDS011;65977;56.380;44.022;2023-04-03T09:24:16;9.88;;;3.90;;
77046;SDS011;65977;56.380;44.022;2023-04-03T09:29:25;25.25;;;4.38;;
77046;SDS011;65977;56.380;44.022;2023-04-03T09:31:56;7.45;;;3.40;;
77046;SDS011;65977;56.380;44.022;2023-04-03T09:34:36;41.88;;;5.22;;
77046;SDS011;65977;56.380;44.022;2023-04-03T09:37:04;22.20;;;6.55;;
77046;SDS011;65977;56.380;44.022;2023-04-03T09:39:51;22.65;;;4.47;;
77046;SDS011;65977;56.380;44.022;2023-04-03T09:42:23;24.50;;;6.18;;
77046;SDS011;65977;56.380;44.022;2023-04-03T09:44:55;25.60;;;8.45;;
77046;SDS011;65977;56.380;44.022;2023-04-03T09:47:31;19.65;;;3.92;;
77046;SDS011;65977;56.380;44.022;2023-04-03T09:52:40;7.38;;;3.50;;
77046;SDS011;65977;56.380;44.022;2023-04-03T09:55:28;10.15;;;4.15;;
77046;SDS011;65977;56.380;44.022;2023-04-03T09:58:02;20.92;;;4.28;;
77046;SDS011;65977;56.380;44.022;2023-04-03T10:00:35;5.10;;;2.97;;
77046;SDS011;65977;56.380;44.022;2023-04-03T10:03:23;13.32;;;4.40;;
77046;SDS011;65977;56.380;44.022;2023-04-03T10:05:57;8.93;;;3.83;;
77046;SDS011;65977;56.380;44.022;2023-04-03T10:08:26;15.25;;;4.18;;
77046;SDS011;65977;56.380;44.022;2023-04-03T10:11:15;29.67;;;6.60;;
77046;SDS011;65977;56.380;44.022;2023-04-03T10:13:54;9.55;;;4.57;;
77046;SDS011;65977;56.380;44.022;2023-04-03T10:16:32;14.52;;;5.40;;
77046;SDS011;65977;56.380;44.022;2023-04-03T10:24:28;19.95;;;3.67;;
77046;SDS011;65977;56.380;44.022;2023-04-03T10:27:26;9.57;;;3.60;;
77046;SDS011;65977;56.380;44.022;2023-04-03T10:38:23;5.93;;;3.78;;
77046;SDS011;65977;56.380;44.022;2023-04-03T10:41:27;12.93;;;3.40;;
77046;SDS011;65977;56.380;44.022;2023-04-03T10:44:14;20.35;;;3.92;;
77046;SDS011;65977;56.380;44.022;2023-04-03T10:47:38;11.45;;;3.40;;
77046;SDS011;65977;56.380;44.022;2023-04-03T10:50:02;17.83;;;3.72;;
77046;SDS011;65977;56.380;44.022;2023-04-03T10:52:55;9.82;;;3.55;;
77046;SDS011;65977;56.380;44.022;2023-04-03T10:55:24;24.35;;;4.40;;
77046;SDS011;65977;56.380;44.022;2023-04-03T10:58:11;28.40;;;4.65;;
77046;SDS011;65977;56.380;44.022;2023-04-03T11:01:08;15.75;;;4.22;;
77046;SDS011;65977;56.380;44.022;2023-04-03T11:03:58;9.13;;;3.30;;
77046;SDS011;65977;56.380;44.022;2023-04-03T11:07:01;25.17;;;4.10;;
77046;SDS011;65977;56.380;44.022;2023-04-03T11:09:25;76.65;;;6.63;;
77046;SDS011;65977;56.380;44.022;2023-04-03T11:11:55;47.97;;;5.05;;
77046;SDS011;65977;56.380;44.022;2023-04-03T11:14:31;66.25;;;5.35;;
77046;SDS011;65977;56.380;44.022;2023-04-03T11:17:19;20.67;;;3.70;;
77046;SDS011;65977;56.380;44.022;2023-04-03T11:22:34;5.80;;;2.80;;
77046;SDS011;65977;56.380;44.022;2023-04-03T11:25:14;10.40;;;3.42;;
77046;SDS011;65977;56.380;44.022;2023-04-03T11:27:54;9.85;;;3.20;;
77046;SDS011;65977;56.380;44.022;2023-04-03T11:30:40;5.63;;;2.90;;
77046;SDS011;65977;56.380;44.022;2023-04-03T11:33:19;9.02;;;4.10;;
77046;SDS011;65977;56.380;44.022;2023-04-03T11:35:55;6.75;;;4.20;;
77046;SDS011;65977;56.380;44.022;2023-04-03T11:38:44;5.43;;;3.33;;
77046;SDS011;65977;56.380;44.022;2023-04-03T11:41:14;6.30;;;3.10;;
77046;SDS011;65977;56.380;44.022;2023-04-03T11:43:42;6.80;;;3.38;;
77046;SDS011;65977;56.380;44.022;2023-04-03T11:46:48;8.10;;;4.63;;
77046;SDS011;65977;56.380;44.022;2023-04-03T12:13:40;6.90;;;3.47;;
77046;SDS011;65977;56.380;44.022;2023-04-03T12:29:29;8.75;;;2.60;;
77046;SDS011;65977;56.380;44.022;2023-04-03T12:39:49;15.85;;;3.67;;
77046;SDS011;65977;56.380;44.022;2023-04-03T12:47:45;8.18;;;3.63;;
77046;SDS011;65977;56.380;44.022;2023-04-03T12:50:29;9.10;;;3.10;;
77046;SDS011;65977;56.380;44.022;2023-04-03T12:53:01;10.15;;;2.83;;
77046;SDS011;65977;56.380;44.022;2023-04-03T12:55:31;16.98;;;3.22;;
77046;SDS011;65977;56.380;44.022;2023-04-03T13:00:58;6.65;;;3.05;;
